x

Bay Of Campeche - 214 Nm Ne Of Veracruz, Mx (42055) Wave Buoy

8:50am - Fri 28th Nov 2014 All times are UTC.

  • Sig Wave height 3.6ft
  • Swell Direction
  • Peak Period 6s
  • Average Period 5s
  • Wind
    9mph, 11mph gusts
  • Sea Temp 78°f
  • Air Temp 73°f
  • Sea Pressure 1025.4mb

More Historic Weather Station data

Upgrade to MSW Pro to gain access to the past 30 days of data for over 8000 Wavebouys and Weather Stations around the globe.

Join Pro

Comparision Forecast

View Surf forecast
   
Fri 11/28 8:50am 3.5ft 6s 5s 9 11 mph 1025.4mb 78f 73f
7:50am 3.5ft 8s 5s 9 11 mph 1025.9mb 78f 73f
6:50am 4ft 8s 5s 11
mph
1026.3mb 78f 73f
5:50am 4ft 8s 5s 11 13 mph 1026.7mb 78f 73f
4:50am 4ft 8s 5s 13 16 mph 1027.5mb 78f 73f
3:50am 4ft 8s 5s 11 16 mph 1027.8mb 78f 73f
2:50am 3.5ft 8s 5s 13 18 mph 1027.6mb 78f 73f
1:50am 4ft 8s 5s 13 18 mph 1027.4mb 78f 73f
12:50am 4ft 9s 5s 13 18 mph 1027mb 78f 73f
Thu 11/27 11:50pm 4.5ft 8s 6s 13 20 mph 1026.6mb 78f 73f
10:50pm 4.5ft 8s 5s 16 18 mph 1026.2mb 78f 73f
9:50pm 4.5ft 8s 6s 13 20 mph 1025.9mb 78f 73f
8:50pm 4.5ft 8s 6s 16 20 mph 1025.8mb 78f 73f
7:50pm 4.5ft 8s 6s 13 18 mph 1026.2mb 78f 72f
6:50pm 4.5ft 8s 6s 13 18 mph 1026.8mb 78f 73f
5:50pm 4.5ft 9s 6s 13 18 mph 1027.8mb 78f 73f
4:50pm 4.5ft 9s 6s 13 18 mph 1028.4mb 78f 73f
3:50pm 4.5ft 9s 6s 11 16 mph 1028.8mb 78f 73f
2:50pm 5ft 9s 6s 11 16 mph 1028.4mb 78f 72f
1:50pm 4.5ft 9s 6s 9 16 mph 1027.9mb 78f 72f
12:50pm 5ft 9s 6s 11 16 mph 1027.1mb 78f 71f
11:50am 5ft 9s 6s 11 16 mph 1026.6mb 78f 72f
10:50am 5ft 9s 6s 7 11 mph 1026mb 78f 71f
9:50am 5ft 9s 6s 9 11 mph 1025.7mb 78f 71f
8:50am 5ft 9s 6s 9 11 mph 1025.6mb 78f 72f
7:50am 6ft 10s 7s 2 4 mph 1025.8mb 78f 71f
6:50am 5.5ft 9s 6s 9 11 mph 1025.9mb 78f 71f
5:50am 6ft 9s 6s 7 11 mph 1026.3mb 78f 71f
4:50am 5.5ft 9s 6s 11 18 mph 1026.3mb 78f 71f
3:50am 5.5ft 9s 6s 9 13 mph 1026.3mb 78f 71f
2:50am 6ft 10s 7s 7 11 mph 1026mb 78f 71f
1:50am 6ft 9s 7s 13 16 mph 1025.5mb 78f 71f
12:50am 6.5ft 9s 7s 9 13 mph 1025mb 78f 71f
Wed 11/26 11:50pm 6.5ft 9s 7s 11 18 mph 1024.4mb 78f 71f
10:50pm 6.5ft 9s 7s 11 16 mph 1023.9mb 78f 71f
9:50pm 6.5ft 10s 7s 16 18 mph 1023.6mb 78f 71f
8:50pm 7.5ft 10s 7s 11 16 mph 1023.8mb 78f 71f
7:50pm 7ft 9s 7s 13 18 mph 1023.9mb 78f 71f
6:50pm 8ft 9s 7s 11 16 mph 1024.4mb 78f 71f
5:50pm 8ft 10s 7s 13 18 mph 1025.3mb 78f 71f
4:50pm 8ft 9s 7s 13 18 mph 1026mb 78f 71f
3:50pm 8ft 9s 7s 16 22 mph 1026.2mb 78f 71f
2:50pm 8.5ft 9s 7s 16 22 mph 1025.8mb 78f 71f
1:50pm 9ft 9s 7s 20 25 mph 1025mb 78f 71f
12:50pm 9ft 10s 7s 22 27 mph 1024.4mb 78f 71f
11:50am 11ft 9s 7s 20 27 mph 1023.9mb 78f 71f
10:50am 10.5ft 9s 7s 20 27 mph 1023.1mb 78f 71f
9:50am 10ft 9s 7s 22 27 mph 1022.4mb 78f 71f
8:50am 10ft 9s 7s 22 27 mph 1022.2mb 78f 72f
7:50am 11ft 9s 7s 20 27 mph 1022.1mb 78f 72f
6:50am 11.5ft 9s 7s 25 29 mph 1022.1mb 78f 72f
5:50am 11.5ft 9s 7s 25 29 mph 1022.4mb 78f 73f
4:50am 11ft 10s 7s 25 31 mph 1022.4mb 78f 73f
3:50am 14ft 9s 7s 29 34 mph 1022.1mb 78f 73f
2:50am 13.5ft 8s 7s 29 36 mph 1021.7mb 78f 73f
1:50am 11ft 8s 6s 31 38 mph 1020.5mb 78f 73f
12:50am 11ft 8s 6s 31 38 mph 1019.3mb 78f 74f
Tue 11/25 11:50pm 11ft 8s 6s 34 38 mph 1018.3mb 78f 73f
10:50pm 9ft 7s 6s 36 43 mph 1016.9mb 78f 73f
9:50pm 7.5ft 8s 6s 29 36 mph 1016.4mb 78f 75f
8:50pm 8ft 8s 6s 27 31 mph 1016.3mb 78f 75f
7:50pm 7ft 8s 6s 27 31 mph 1016.1mb 78f 75f
6:50pm 7ft 8s 6s 22 27 mph 1016.2mb 78f 76f
5:50pm 7ft 8s 6s 22 27 mph 1016.5mb 78f 75f
4:50pm 8ft 8s 6s 22 25 mph 1016.7mb 78f 76f
3:50pm 8ft 8s 6s 22 27 mph 1016.1mb 78f 76f
2:50pm 8ft 8s 6s 25 29 mph 1015.4mb 78f 76f
1:50pm 7.5ft 7s 6s 27 31 mph 1014mb 78f 75f
12:50pm 8ft 8s 6s 25 31 mph 1013.7mb 78f 75f
11:50am 7ft 8s 5s 25 31 mph 1013mb 79f 76f
10:50am 5.5ft 5s 5s 25 29 mph 1012.4mb 79f 76f
9:50am 4.5ft 5s 5s 22 27 mph 1012.1mb 79f 77f
8:50am 4ft 6s 5s 18 22 mph 1012.3mb 79f 77f
7:50am 3.5ft 6s 5s 18 20 mph 1012.5mb 79f 78f
6:50am 3.5ft 5s 5s 16 18 mph 1012.9mb 79f 78f
5:50am 3.5ft 8s 5s 16 18 mph 1013mb 79f 78f
4:50am 3.5ft 6s 4s 16 18 mph 1013.2mb 79f 78f
3:50am 3.5ft 8s 4s 16 18 mph 1012.9mb 79f 78f
2:50am 3.5ft 5s 4s 18 20 mph 1012.3mb 79f 78f
1:50am 3.5ft 8s 4s 16 20 mph 1011.8mb 79f 78f
12:50am 3ft 8s 5s 18 20 mph 1011.2mb 79f 78f
Mon 11/24 11:50pm 3ft 8s 5s 16 18 mph 1010.5mb 79f 78f
10:50pm 2.5ft 8s 6s 9 11 mph 1010mb 79f 79f
9:50pm 2.5ft 8s 5s 9 11 mph 1009.6mb 79f 79f
8:50pm 2.5ft 8s 5s 7
mph
1009.5mb 79f 79f
7:50pm 2.5ft 8s 6s 7 9 mph 1009.6mb 79f 79f
6:50pm 3ft 8s 6s 9 11 mph 1010mb 79f 78f
5:50pm 3ft 8s 6s 9 11 mph 1010.8mb 79f 78f
4:50pm 3ft 8s 6s 11
mph
1011.2mb 79f 78f
3:50pm 3ft 8s 6s 11 13 mph 1011.4mb 79f 78f
2:50pm 3.5ft 8s 6s 9 11 mph 1010.7mb 78f 78f
1:50pm 3.5ft 8s 6s 7
mph
1010mb 78f 78f
12:50pm 3.5ft 8s 6s 4 7 mph 1009mb 78f 78f
11:50am 3.5ft 8s 6s 7
mph
1008.4mb 78f 78f
10:50am 4.5ft 8s 6s 4 7 mph 1007.8mb 78f 78f